Carmopolis de Minas, Brazil
Current Conditions -  °F | °C
As of 1:00 PM on Sunday 23 Nov 2014 (Local Time) from SBPR Reporting Station
Light Rain Light Rain  
Wind Chill: 81°   Ceiling: 2000
Heat Index: 83°   Visibility: 6mi
Dew Point: 66°   Wind: 8mph
Humidity: 61%   Direction: 10°N
Pressure: 30.03"   Gusts: NA
Location:  20.54°S, 44.63°W
Report Text: SBPR 231500Z 01007KT 9999 -RA BKN020 FEW030TCU 27/19 Q1017
Loading
Personal Weather Stations






























Interactive Weather Map New forecast layout! Learn more

10-Day Weather Forecast

Advertisements
Track Severe Weather on mobile